Time;durP1;ratioP1;P1;durP2;ratioP2;P2;SDS_P1;SDS_P2;PMS_P1;PMS_P2;Temp;Humidity;BMP_temperature;BMP_pressure;BME280_temperature;BME280_humidity;BME280_pressure;Samples;Min_cycle;Max_cycle;Signal;HPM_P1;HPM_P2
2022/08/06 00:01:33;;;;;;;13.10;10.30;;;;;;;21.39;63.65;98439.31;219389;1276;25300;-73
2022/08/06 00:07:31;;;;;;;14.70;9.80;;;;;;;21.27;64.10;98436.59;219810;1276;22538;-75
2022/08/06 00:13:21;;;;;;;13.30;10.00;;;;;;;21.20;64.24;98438.66;219706;1278;25485;-74
2022/08/06 00:19:35;;;;;;;15.40;9.90;;;;;;;21.15;64.42;98452.29;219622;1278;24437;-74
2022/08/06 00:26:15;;;;;;;13.50;9.60;;;;;;;21.04;64.48;98458.04;219810;1276;24316;-75
2022/08/06 00:32:48;;;;;;;10.80;9.70;;;;;;;20.89;64.81;98457.89;219907;1276;22720;-75
2022/08/06 00:45:35;;;;;;;10.90;9.80;;;;;;;20.65;65.32;98473.34;219697;1276;23376;-74
2022/08/06 00:51:39;;;;;;;;;;;;;;;;;;;;;
2022/08/06 00:57:58;;;;;;;13.80;10.30;;;;;;;20.54;65.98;98481.92;219646;1276;24323;-74
2022/08/06 01:03:53;;;;;;;;;;;;;;;;;;;;;
2022/08/06 01:09:34;;;;;;;14.50;8.20;;;;;;;20.57;66.47;98499.40;219731;1276;25366;-73
2022/08/06 01:16:17;;;;;;;12.90;8.50;;;;;;;20.58;66.57;98501.05;219972;1276;24218;-76
2022/08/06 01:22:42;;;;;;;9.00;7.10;;;;;;;20.60;66.43;98517.02;219733;1278;23359;-73
2022/08/06 01:29:21;;;;;;;9.00;6.80;;;;;;;20.67;66.66;98521.11;219414;1276;23258;-73
2022/08/06 01:36:08;;;;;;;6.90;5.90;;;;;;;20.75;66.38;98521.20;219305;1276;24383;-74
2022/08/06 01:42:22;;;;;;;6.10;5.40;;;;;;;20.82;66.23;98526.78;216038;1276;5379666;-73
2022/08/06 01:49:14;;;;;;;;;;;;;;;;;;;;;
2022/08/06 01:55:29;;;;;;;5.10;4.60;;;;;;;20.91;65.62;98538.66;219678;1276;22550;-74
2022/08/06 02:01:39;;;;;;;5.10;4.40;;;;;;;20.94;65.44;98543.61;219805;1276;25258;-74
2022/08/06 02:07:26;;;;;;;5.10;4.70;;;;;;;20.98;65.21;98549.05;219820;1276;25259;-74
2022/08/06 02:13:15;;;;;;;5.20;4.80;;;;;;;20.98;65.14;98550.91;219780;1276;25392;-74
2022/08/06 02:18:55;;;;;;;8.00;4.80;;;;;;;20.98;65.02;98556.91;219776;1276;22597;-75
2022/08/06 02:31:14;;;;;;;6.90;4.80;;;;;;;21.00;64.89;98560.91;219739;1276;23053;-74
2022/08/06 02:36:54;;;;;;;;;;;;;;;;;;;;;
2022/08/06 02:42:57;;;;;;;5.90;4.70;;;;;;;20.99;65.05;98579.25;219959;1277;22724;-73
2022/08/06 02:48:47;;;;;;;5.40;4.90;;;;;;;21.00;65.26;98584.17;220024;1277;23805;-73
2022/08/06 02:54:12;;;;;;;5.90;5.00;;;;;;;21.00;65.23;98595.21;219726;1276;23841;-74
2022/08/06 02:59:44;;;;;;;;;;;;;;;;;;;;;
2022/08/06 03:05:46;;;;;;;4.90;4.40;;;;;;;21.02;65.29;98601.48;219607;1278;25383;-74
2022/08/06 03:12:00;;;;;;;;;;;;;;;;;;;;;
2022/08/06 03:17:34;;;;;;;8.00;4.90;;;;;;;21.07;65.76;98612.36;219613;1278;25213;-72
2022/08/06 03:23:12;;;;;;;5.30;4.40;;;;;;;21.08;65.61;98624.76;219779;1276;24337;-73
2022/08/06 03:28:47;;;;;;;5.10;4.70;;;;;;;21.10;65.99;98637.09;219892;1276;25488;-73
2022/08/06 03:34:13;;;;;;;5.30;4.80;;;;;;;21.12;66.19;98645.67;219806;1277;25354;-74
2022/08/06 03:40:52;;;;;;;5.30;4.70;;;;;;;21.14;66.27;98654.27;219849;1277;22587;-75
2022/08/06 03:47:08;;;;;;;5.30;4.80;;;;;;;21.17;66.62;98659.23;219924;1277;24211;-74
2022/08/06 03:53:06;;;;;;;5.30;4.90;;;;;;;21.20;66.91;98675.23;219786;1277;22584;-73
2022/08/06 03:58:39;;;;;;;5.40;4.80;;;;;;;21.26;67.19;98681.27;219778;1277;22559;-74
2022/08/06 04:10:12;;;;;;;9.20;5.10;;;;;;;21.31;67.32;98701.11;219958;1277;22547;-74
2022/08/06 04:15:44;;;;;;;6.10;4.70;;;;;;;21.31;67.85;98714.03;219868;1277;25338;-73
2022/08/06 04:21:34;;;;;;;;;;;;;;;;;;;;;
2022/08/06 04:27:27;;;;;;;4.80;4.40;;;;;;;21.33;67.88;98733.08;219755;1276;24312;-74
2022/08/06 04:32:55;;;;;;;6.70;5.00;;;;;;;21.35;68.21;98735.14;219890;1277;24323;-74
2022/08/06 04:39:16;;;;;;;5.80;4.80;;;;;;;21.41;68.52;98751.19;219774;1277;24292;-73
2022/08/06 04:44:36;;;;;;;5.40;4.80;;;;;;;21.47;68.90;98761.17;219946;1277;22582;-74
2022/08/06 04:50:12;;;;;;;5.70;5.10;;;;;;;21.54;68.91;98789.92;220034;1277;22586;-73
2022/08/06 04:55:34;;;;;;;5.60;5.00;;;;;;;21.67;68.85;98812.11;220045;1277;25571;-74
2022/08/06 05:00:43;;;;;;;6.00;4.90;;;;;;;21.79;68.70;98830.16;219701;1277;22709;-74
2022/08/06 05:06:57;;;;;;;7.30;4.50;;;;;;;21.84;68.68;98839.06;219761;1278;25260;-74
2022/08/06 05:12:52;;;;;;;5.80;5.20;;;;;;;21.86;68.71;98850.16;219620;1277;22554;-74
2022/08/06 05:18:28;;;;;;;7.20;5.10;;;;;;;21.86;69.06;98866.91;219889;1277;25251;-73
2022/08/06 05:24:41;;;;;;;5.60;4.50;;;;;;;21.79;69.31;98891.55;220435;1277;24116;-73
2022/08/06 05:30:18;;;;;;;5.30;4.70;;;;;;;21.76;69.52;98908.46;219891;1277;23780;-73
2022/08/06 05:35:41;;;;;;;5.50;4.90;;;;;;;21.68;69.71;98917.27;220227;1277;24125;-74
2022/08/06 05:47:37;;;;;;;5.10;4.30;;;;;;;21.64;70.56;98943.13;219898;1281;22608;-75
2022/08/06 05:53:17;;;;;;;5.40;4.90;;;;;;;21.60;70.73;98954.81;220280;1277;25404;-75
2022/08/06 05:59:10;;;;;;;5.20;4.70;;;;;;;21.52;71.35;98953.46;220223;1277;23293;-74
2022/08/06 06:05:54;;;;;;;7.30;5.30;;;;;;;21.34;71.94;98955.63;220008;1281;24332;-73
2022/08/06 06:12:02;;;;;;;5.20;4.70;;;;;;;21.11;72.67;98963.54;220213;1277;22712;-73
2022/08/06 06:18:12;;;;;;;5.40;4.80;;;;;;;20.85;73.51;98973.83;220180;1278;24319;-74
2022/08/06 06:24:25;;;;;;;5.50;4.90;;;;;;;20.53;74.53;98975.73;219932;1277;24311;-74
2022/08/06 06:30:43;;;;;;;5.20;4.70;;;;;;;20.32;75.50;98980.86;220164;1276;23848;-76
2022/08/06 06:36:55;;;;;;;6.00;5.40;;;;;;;20.16;76.21;99004.68;220321;1277;24307;-76
2022/08/06 06:43:32;;;;;;;6.20;5.30;;;;;;;20.03;77.02;99019.63;220181;1276;24269;-74
2022/08/06 06:49:31;;;;;;;4.00;1.30;;;;;;;19.83;77.43;99029.30;220326;1276;22492;-74
2022/08/06 06:56:28;;;;;;;2.90;1.30;;;;;;;19.12;78.70;99038.99;220445;1277;22536;-76
2022/08/06 07:03:30;;;;;;;3.00;0.80;;;;;;;18.35;79.96;99071.85;220029;1277;25421;-78
2022/08/06 07:09:49;;;;;;;2.50;0.90;;;;;;;17.74;81.81;99085.58;219967;1277;24762;-78
2022/08/06 07:22:34;;;;;;;1.20;0.80;;;;;;;17.09;83.92;99109.27;220440;1276;23001;-79
2022/08/06 07:28:25;;;;;;;2.00;0.70;;;;;;;16.97;84.77;99106.50;220426;1277;26519;-78
2022/08/06 07:34:26;;;;;;;;;;;;;;;;;;;;;
2022/08/06 07:39:58;;;;;;;3.90;1.10;;;;;;;16.82;85.61;99096.34;219549;1282;22559;-79
2022/08/06 07:45:43;;;;;;;0.90;0.90;;;;;;;16.82;86.31;99105.06;220222;1284;25333;-80
2022/08/06 07:51:23;;;;;;;1.20;1.10;;;;;;;16.78;86.94;99115.65;219790;1277;24254;-79
2022/08/06 07:56:59;;;;;;;3.00;1.10;;;;;;;16.74;87.52;99121.23;220457;1277;22534;-80
2022/08/06 08:08:55;;;;;;;;;;;;;;;;;;;;;
2022/08/06 08:14:36;;;;;;;2.40;2.00;;;;;;;16.88;88.93;99134.29;220350;1276;23810;-80
2022/08/06 08:20:16;;;;;;;2.10;1.90;;;;;;;16.94;89.08;99137.48;220111;1277;26468;-80
2022/08/06 08:25:53;;;;;;;4.40;2.10;;;;;;;17.00;89.15;99135.72;220481;1276;22599;-80
2022/08/06 08:31:51;;;;;;;;;;;;;;;;;;;;;
2022/08/06 08:37:30;;;;;;;2.30;2.10;;;;;;;17.08;89.40;99148.20;220431;1282;22900;-79
2022/08/06 08:43:29;;;;;;;2.60;2.40;;;;;;;17.10;89.56;99156.92;219682;1279;24213;-77
2022/08/06 08:49:56;;;;;;;1.80;1.70;;;;;;;17.07;89.65;99171.96;219574;1282;25359;-77
2022/08/06 09:03:05;;;;;;;;;;;;;;;;;;;;;
2022/08/06 09:08:41;;;;;;;;;;;;;;;;;;;;;
2022/08/06 09:15:05;;;;;;;1.50;1.40;;;;;;;17.28;89.90;99192.04;220275;1277;24245;-77
2022/08/06 09:20:48;;;;;;;1.30;1.20;;;;;;;17.21;90.06;99207.13;221206;1276;23352;-79
2022/08/06 09:26:08;;;;;;;2.00;1.50;;;;;;;17.11;89.92;99214.20;221282;1276;23202;-78
2022/08/06 09:32:39;;;;;;;;;;;;;;;;;;;;;
2022/08/06 09:39:40;;;;;;;3.00;1.60;;;;;;;16.86;90.26;99237.92;221461;1277;24353;-78
2022/08/06 09:45:25;;;;;;;2.70;1.60;;;;;;;16.88;90.37;99246.09;221170;1277;22571;-78
2022/08/06 09:51:07;;;;;;;3.00;1.90;;;;;;;16.84;90.27;99253.46;220221;1277;22544;-77
2022/08/06 09:57:01;;;;;;;2.30;2.10;;;;;;;16.77;90.36;99257.06;221373;1277;23188;-78
2022/08/06 10:03:13;;;;;;;1.90;1.80;;;;;;;16.67;90.17;99262.73;221425;1276;22549;-78
2022/08/06 10:09:32;;;;;;;2.80;2.00;;;;;;;16.61;90.54;99268.81;221480;1277;22740;-78
2022/08/06 10:15:53;;;;;;;3.00;2.50;;;;;;;16.56;90.48;99277.39;221419;1276;22698;-78
2022/08/06 10:21:27;;;;;;;3.40;2.30;;;;;;;16.50;90.89;99285.30;221329;1276;24310;-78
2022/08/06 10:27:23;;;;;;;3.10;2.30;;;;;;;16.45;90.99;99298.36;220234;1276;22564;-77
2022/08/06 10:33:08;;;;;;;2.70;2.20;;;;;;;16.44;91.45;99307.41;220276;1276;25483;-78
2022/08/06 10:38:53;;;;;;;3.20;2.70;;;;;;;16.39;91.65;99306.44;221275;1277;22574;-78
2022/08/06 10:45:16;;;;;;;4.90;3.90;;;;;;;16.35;91.51;99311.41;221306;1277;22646;-77
2022/08/06 10:51:29;;;;;;;4.60;4.20;;;;;;;16.16;91.30;99314.11;220403;1276;23281;-77
2022/08/06 10:58:15;;;;;;;5.30;3.90;;;;;;;15.96;91.61;99318.48;220414;1276;23163;-78
2022/08/06 11:04:06;;;;;;;4.90;4.40;;;;;;;15.83;92.14;99324.16;220475;1276;25255;-78
2022/08/06 11:10:34;;;;;;;;;;;;;;;;;;;;;
2022/08/06 11:15:54;;;;;;;8.00;7.20;;;;;;;15.71;93.14;99324.97;220000;1276;22558;-77
2022/08/06 11:21:01;;;;;;;11.10;8.00;;;;;;;15.75;93.32;99328.61;220220;1277;22601;-78
2022/08/06 11:26:07;;;;;;;12.30;8.70;;;;;;;15.78;93.49;99328.16;220069;1276;24298;-78
2022/08/06 11:32:29;;;;;;;12.70;8.90;;;;;;;15.82;93.61;99331.71;220299;1276;23543;-78
2022/08/06 11:38:17;;;;;;;13.70;8.50;;;;;;;15.83;93.56;99339.46;219799;1281;22547;-79
2022/08/06 11:44:30;;;;;;;14.30;9.60;;;;;;;15.83;93.55;99335.59;219955;1281;22597;-82
2022/08/06 11:50:31;;;;;;;16.20;11.30;;;;;;;15.78;93.62;99338.54;217637;1290;23736;-77
2022/08/06 11:56:52;;;;;;;;;;;;;;;;;;;;;
2022/08/06 12:03:10;;;;;;;13.70;10.40;;;;;;;15.92;94.07;99330.26;219141;1284;25265;-77
2022/08/06 12:09:14;;;;;;;14.80;10.80;;;;;;;16.04;94.10;99329.36;219292;1277;22839;-80
2022/08/06 12:15:06;;;;;;;17.30;11.20;;;;;;;16.12;93.84;99334.16;219859;1278;23960;-77
2022/08/06 12:21:08;;;;;;;11.50;9.80;;;;;;;16.15;94.12;99331.10;220059;1280;24315;-77
2022/08/06 12:26:50;;;;;;;11.40;9.70;;;;;;;16.23;93.72;99338.09;219765;1280;22618;-76
2022/08/06 12:32:24;;;;;;;13.00;10.10;;;;;;;16.32;93.99;99338.66;220123;1277;22541;-77
2022/08/06 12:38:06;;;;;;;13.10;10.40;;;;;;;16.41;93.90;99342.04;220538;1277;23331;-77
2022/08/06 12:51:00;;;;;;;12.30;10.40;;;;;;;16.57;93.16;99345.65;220756;1277;22558;-76
2022/08/06 12:56:36;;;;;;;12.60;9.20;;;;;;;16.60;93.21;99343.55;220602;1276;22775;-77
2022/08/06 13:03:25;;;;;;;11.70;10.40;;;;;;;16.68;93.15;99344.63;220630;1277;24228;-79
2022/08/06 13:09:27;;;;;;;9.80;8.70;;;;;;;16.76;93.38;99339.52;220701;1277;25745;-78
2022/08/06 13:15:30;;;;;;;10.40;9.40;;;;;;;17.02;93.46;99343.17;220523;1277;24435;-77
2022/08/06 13:22:05;;;;;;;11.00;9.90;;;;;;;17.36;92.98;99342.70;220220;1277;22558;-77
2022/08/06 13:28:31;;;;;;;10.10;8.80;;;;;;;17.62;92.04;99343.51;220059;1277;23761;-77
2022/08/06 13:34:34;;;;;;;9.60;8.00;;;;;;;17.72;90.97;99343.77;220154;1276;24523;-77
2022/08/06 13:40:50;;;;;;;;;;;;;;;;;;;;;
2022/08/06 13:46:44;;;;;;;7.30;6.70;;;;;;;18.09;90.67;99344.02;219603;1281;22610;-77
2022/08/06 13:52:34;;;;;;;;;;;;;;;;;;;;;
2022/08/06 13:58:28;;;;;;;6.50;5.90;;;;;;;18.37;89.41;99341.80;219558;1281;25403;-78
2022/08/06 14:04:17;;;;;;;5.70;5.20;;;;;;;18.52;88.61;99345.97;219443;1281;22577;-78
2022/08/06 14:10:17;;;;;;;6.10;5.60;;;;;;;18.72;88.48;99338.27;220097;1277;22734;-79
2022/08/06 14:16:47;;;;;;;5.40;5.00;;;;;;;19.11;89.24;99333.01;220143;1276;26397;-76
2022/08/06 14:22:46;;;;;;;5.70;5.20;;;;;;;19.50;88.76;99328.66;220057;1276;24422;-77
2022/08/06 14:28:40;;;;;;;6.70;5.80;;;;;;;19.72;86.80;99330.11;220087;1276;22587;-76
2022/08/06 14:34:13;;;;;;;;;;;;;;;19.64;86.37;99335.98;219982;1276;25403;-76
2022/08/06 14:39:29;;;;;;;5.40;4.90;;;;;;;19.65;86.13;99341.91;220010;1276;24163;-77
2022/08/06 14:45:06;;;;;;;7.20;5.40;;;;;;;19.60;85.66;99339.02;219929;1276;24278;-77
2022/08/06 14:50:20;;;;;;;6.20;5.60;;;;;;;19.58;85.73;99336.33;220423;1276;24385;-78
2022/08/06 14:55:51;;;;;;;7.30;5.60;;;;;;;19.62;86.05;99332.17;220639;1276;23907;-77
2022/08/06 15:01:14;;;;;;;6.10;5.50;;;;;;;19.72;86.07;99323.75;219990;1276;22535;-76
2022/08/06 15:06:42;;;;;;;5.60;5.10;;;;;;;19.84;86.46;99326.35;219978;1276;22717;-77
2022/08/06 15:12:55;;;;;;;5.30;4.80;;;;;;;19.94;85.94;99325.68;219919;1276;24989;-77
2022/08/06 15:18:44;;;;;;;5.00;4.50;;;;;;;19.99;85.26;99322.13;219661;1276;23947;-77
2022/08/06 15:24:31;;;;;;;4.10;3.80;;;;;;;20.06;84.68;99326.59;220016;1276;22580;-79
2022/08/06 15:29:52;;;;;;;4.70;4.30;;;;;;;20.00;83.87;99324.16;220352;1276;22597;-77
2022/08/06 15:35:36;;;;;;;;;;;;;;;;;;;;;
2022/08/06 15:41:47;;;;;;;4.50;4.10;;;;;;;19.98;83.45;99322.31;220092;1276;24288;-78
2022/08/06 15:47:03;;;;;;;5.10;4.20;;;;;;;19.93;84.42;99316.63;220065;1278;22583;-77
2022/08/06 15:52:05;;;;;;;5.90;4.40;;;;;;;19.95;84.53;99316.78;220050;1276;22618;-78
2022/08/06 15:57:32;;;;;;;5.30;4.80;;;;;;;19.94;83.78;99315.90;220073;1276;25417;-76
2022/08/06 16:03:05;;;;;;;6.00;4.60;;;;;;;19.90;83.94;99318.71;220038;1276;25321;-77
2022/08/06 16:08:39;;;;;;;;;;;;;;;;;;;;;
2022/08/06 16:14:24;;;;;;;4.30;3.90;;;;;;;19.80;83.39;99320.48;220090;1276;24335;-79
2022/08/06 16:20:09;;;;;;;4.20;3.70;;;;;;;19.67;82.54;99322.33;220730;1276;24335;-77
2022/08/06 16:26:45;;;;;;;5.40;4.10;;;;;;;19.51;82.61;99318.04;220048;1276;24225;-77
2022/08/06 16:33:04;;;;;;;6.30;5.70;;;;;;;19.37;82.62;99313.92;220057;1276;22544;-77
2022/08/06 16:38:45;;;;;;;5.00;4.50;;;;;;;19.24;83.33;99316.24;220070;1275;23853;-77
2022/08/06 16:44:36;;;;;;;6.20;5.60;;;;;;;19.11;83.59;99320.15;219851;1276;24275;-80
2022/08/06 16:50:04;;;;;;;8.90;6.00;;;;;;;18.99;82.83;99317.21;220036;1276;22660;-77
2022/08/06 16:55:56;;;;;;;6.40;5.30;;;;;;;18.88;81.71;99323.45;219893;1276;25454;-79
2022/08/06 17:01:40;;;;;;;5.30;4.80;;;;;;;18.77;80.79;99331.55;219669;1279;25479;-77
2022/08/06 17:08:03;;;;;;;;;;;;;;;;;;;;;
2022/08/06 17:14:41;;;;;;;;;;;;;;;;;;;;;
2022/08/06 17:20:35;;;;;;;7.40;5.10;;;;;;;18.62;79.86;99348.85;219380;1279;22742;-77
2022/08/06 17:26:52;;;;;;;8.20;6.40;;;;;;;18.56;79.54;99349.77;219623;1279;22883;-78
2022/08/06 17:32:51;;;;;;;6.20;5.60;;;;;;;18.49;79.41;99347.14;219707;1278;24291;-77
2022/08/06 17:44:56;;;;;;;7.20;6.50;;;;;;;18.30;78.93;99345.49;219773;1279;24443;-75
2022/08/06 17:51:05;;;;;;;7.40;6.60;;;;;;;18.21;78.78;99349.20;219896;1276;25296;-79
2022/08/06 18:03:44;;;;;;;7.40;6.70;;;;;;;18.04;78.69;99353.41;219989;1275;26512;-77
2022/08/06 18:09:30;;;;;;;8.10;7.10;;;;;;;17.98;78.87;99358.63;220088;1276;23417;-77
2022/08/06 18:15:10;;;;;;;10.00;7.70;;;;;;;17.93;79.06;99360.94;219924;1278;22660;-76
2022/08/06 18:20:45;;;;;;;8.20;7.30;;;;;;;17.91;79.30;99368.75;220044;1276;23818;-77
2022/08/06 18:26:23;;;;;;;9.20;7.50;;;;;;;17.88;79.54;99370.83;220037;1277;22657;-77
2022/08/06 18:32:02;;;;;;;7.90;6.90;;;;;;;17.84;79.64;99374.86;219773;1278;22822;-76
2022/08/06 18:37:15;;;;;;;7.60;6.80;;;;;;;17.79;79.84;99380.35;219461;1279;25404;-77
2022/08/06 18:42:24;;;;;;;7.80;6.90;;;;;;;17.75;80.06;99381.51;219200;1281;25413;-77
2022/08/06 18:48:11;;;;;;;10.00;7.50;;;;;;;17.70;80.20;99380.36;219245;1281;24238;-78
2022/08/06 18:54:13;;;;;;;7.70;6.30;;;;;;;17.63;80.39;99379.07;219257;1280;25239;-77
2022/08/06 18:59:55;;;;;;;;;;;;;;;;;;;;;
2022/08/06 19:05:18;;;;;;;6.50;5.80;;;;;;;17.40;80.24;99391.19;219526;1280;22783;-77
2022/08/06 19:10:49;;;;;;;8.80;6.10;;;;;;;17.30;80.36;99394.46;219635;1280;26384;-77
2022/08/06 19:16:32;;;;;;;8.20;6.50;;;;;;;17.20;80.65;99395.73;219477;1276;24405;-76
2022/08/06 19:22:59;;;;;;;8.40;6.20;;;;;;;17.11;80.82;99399.58;220137;1277;22560;-76
2022/08/06 19:28:41;;;;;;;9.30;7.50;;;;;;;17.03;81.03;99400.20;220086;1276;22538;-77
2022/08/06 19:34:04;;;;;;;7.00;6.30;;;;;;;16.97;81.23;99402.65;220269;1277;26302;-76
2022/08/06 19:39:40;;;;;;;7.30;6.60;;;;;;;16.95;81.62;99407.09;219893;1276;24247;-77
2022/08/06 19:45:48;;;;;;;10.10;6.40;;;;;;;16.89;84.28;99406.46;219759;1278;22564;-78
2022/08/06 19:51:32;;;;;;;;;;;;;;;16.85;85.81;99393.10;219953;1277;22756;-76
2022/08/06 19:57:22;;;;;;;;;;;;;;;;;;;;;
2022/08/06 20:02:47;;;;;;;9.20;7.10;;;;;;;16.71;87.81;99402.33;220115;1276;22550;-76
2022/08/06 20:08:35;;;;;;;10.40;7.80;;;;;;;16.68;88.87;99402.26;219578;1279;22591;-77
2022/08/06 20:13:46;;;;;;;11.90;7.40;;;;;;;16.64;90.00;99403.64;219608;1279;23158;-78
2022/08/06 20:18:59;;;;;;;8.40;6.60;;;;;;;16.59;90.96;99410.77;219724;1279;25273;-76
2022/08/06 20:24:43;;;;;;;9.80;8.20;;;;;;;16.56;91.63;99402.09;219319;1279;24325;-77
2022/08/06 20:30:34;;;;;;;10.90;9.10;;;;;;;16.50;92.04;99406.36;219166;1281;26639;-77
2022/08/06 20:35:45;;;;;;;10.70;8.30;;;;;;;16.41;92.56;99404.48;219227;1279;22602;-76
2022/08/06 20:41:48;;;;;;;10.20;8.90;;;;;;;16.35;93.21;99402.10;219307;1278;22549;-76
2022/08/06 20:48:12;;;;;;;11.40;9.40;;;;;;;16.30;94.08;99402.77;219702;1279;25384;-76
2022/08/06 20:53:35;;;;;;;12.50;9.10;;;;;;;16.25;94.84;99408.79;219818;1277;25417;-76
2022/08/06 20:58:59;;;;;;;12.00;9.00;;;;;;;16.21;95.61;99408.52;219729;1277;24244;-76
2022/08/06 21:04:42;;;;;;;13.90;10.60;;;;;;;16.17;96.03;99412.70;219535;1277;25365;-76
2022/08/06 21:10:48;;;;;;;11.50;9.60;;;;;;;16.09;96.64;99415.80;219772;1277;22550;-76
2022/08/06 21:16:29;;;;;;;;;;;;;;;;;;;;;
2022/08/06 21:22:42;;;;;;;11.30;9.70;;;;;;;16.02;97.63;99414.64;219711;1278;24467;-76
2022/08/06 21:28:49;;;;;;;11.60;8.70;;;;;;;15.96;97.64;99415.27;219801;1279;22592;-76
2022/08/06 21:34:51;;;;;;;14.40;8.90;;;;;;;15.90;97.99;99422.01;219821;1277;22563;-76
2022/08/06 21:40:53;;;;;;;11.20;8.80;;;;;;;15.85;98.54;99422.89;219918;1278;22824;-76
2022/08/06 21:46:38;;;;;;;11.40;8.70;;;;;;;15.80;99.01;99417.77;219972;1277;24926;-77
2022/08/06 21:53:00;;;;;;;11.40;8.40;;;;;;;15.74;99.37;99420.15;219970;1277;25359;-76
2022/08/06 21:59:20;;;;;;;11.10;8.60;;;;;;;15.68;99.65;99418.55;219951;1277;22541;-75
2022/08/06 22:05:42;;;;;;;;;;;;;;;;;;;;;
2022/08/06 22:18:45;;;;;;;10.90;8.30;;;;;;;15.75;100.00;99422.38;220053;1277;24300;-77
2022/08/06 22:25:04;;;;;;;12.90;10.10;;;;;;;15.78;100.00;99423.46;220005;1277;23020;-78
2022/08/06 22:31:33;;;;;;;13.20;10.70;;;;;;;15.76;100.00;99429.50;220024;1277;24546;-76
2022/08/06 22:38:48;;;;;;;;;;;;;;;;;;;;;
2022/08/06 22:44:29;;;;;;;20.90;15.00;;;;;;;15.73;100.00;99426.21;219615;1280;22735;-76
2022/08/06 22:51:08;;;;;;;19.60;13.10;;;;;;;15.71;100.00;99426.92;219489;1280;24310;-80
2022/08/06 22:57:33;;;;;;;19.80;14.00;;;;;;;15.65;100.00;99423.81;219566;1277;25469;-77
2022/08/06 23:04:23;;;;;;;13.20;11.70;;;;;;;15.53;100.00;99417.98;219663;1277;22537;-76
2022/08/06 23:10:12;;;;;;;13.40;10.40;;;;;;;15.39;100.00;99411.39;220075;1277;25103;-76
2022/08/06 23:15:34;;;;;;;15.40;12.20;;;;;;;15.30;100.00;99403.66;220043;1277;22574;-77
2022/08/06 23:21:33;;;;;;;13.20;10.60;;;;;;;15.20;100.00;99402.19;220125;1277;22553;-76
2022/08/06 23:35:04;;;;;;;;;;;;;;;;;;;;;
2022/08/06 23:40:39;;;;;;;15.50;11.20;;;;;;;14.99;100.00;99400.39;219350;1281;22712;-76
2022/08/06 23:46:53;;;;;;;18.20;12.60;;;;;;;14.89;100.00;99400.10;219948;1280;23840;-76
2022/08/06 23:53:02;;;;;;;17.10;13.20;;;;;;;14.82;100.00;99399.80;219843;1277;22559;-76
2022/08/06 23:59:07;;;;;;;;;;;;;;;;;;;;;
